createdAt,value
2016-05-22T00:00:04.044Z,0
2016-05-22T00:01:04.047Z,0
2016-05-22T00:02:04.065Z,0
2016-05-22T00:03:04.052Z,0
2016-05-22T00:04:04.087Z,0
2016-05-22T00:05:04.057Z,0
2016-05-22T00:06:04.076Z,0
2016-05-22T00:07:03.985Z,0
2016-05-22T00:08:04.112Z,0
2016-05-22T00:09:03.960Z,0
2016-05-22T00:10:04.118Z,0
2016-05-22T00:11:04.214Z,0
2016-05-22T00:12:04.187Z,0
2016-05-22T00:13:04.189Z,0
2016-05-22T00:14:04.253Z,0
2016-05-22T00:15:04.163Z,0
2016-05-22T00:16:04.197Z,0
2016-05-22T00:17:04.184Z,0
2016-05-22T00:18:04.202Z,0
2016-05-22T00:19:04.189Z,0
2016-05-22T00:20:04.239Z,0
2016-05-22T00:21:04.225Z,0
2016-05-22T00:22:04.244Z,0
2016-05-22T00:23:04.278Z,0
2016-05-22T00:24:04.296Z,0
2016-05-22T00:25:04.144Z,0
2016-05-22T00:26:04.271Z,0
2016-05-22T00:27:04.288Z,0
2016-05-22T00:28:04.339Z,0
2016-05-22T00:29:04.341Z,0
2016-05-22T00:30:04.141Z,0
2016-05-22T00:31:04.330Z,0
2016-05-22T00:32:04.349Z,0
2016-05-22T00:33:04.336Z,0
2016-05-22T00:34:04.370Z,0
2016-05-22T00:35:04.373Z,0
2016-05-22T00:36:04.204Z,0
2016-05-22T00:37:04.394Z,0
2016-05-22T00:38:04.412Z,0
2016-05-22T00:39:04.243Z,0
2016-05-22T00:40:04.402Z,0
2016-05-22T00:41:04.420Z,0
2016-05-22T00:42:04.423Z,0
2016-05-22T00:43:04.926Z,0
2016-05-22T00:44:04.459Z,0
2016-05-22T00:45:04.463Z,0
2016-05-22T00:46:04.465Z,0
2016-05-22T00:47:04.467Z,0
2016-05-22T00:48:04.346Z,0
2016-05-22T00:49:04.348Z,0
2016-05-22T00:50:04.538Z,0
2016-05-22T00:51:04.509Z,0
2016-05-22T00:52:04.559Z,0
2016-05-22T00:53:04.531Z,0
2016-05-22T00:54:04.549Z,0
2016-05-22T00:55:04.583Z,0
2016-05-22T00:56:04.633Z,0
2016-05-22T00:57:04.432Z,0
2016-05-22T00:58:05.263Z,0
2016-05-22T00:59:04.594Z,0
2016-05-22T01:00:04.613Z,0
2016-05-22T01:01:04.615Z,0
2016-05-22T01:02:04.633Z,0
2016-05-22T01:03:04.463Z,0
2016-05-22T01:04:04.654Z,0
2016-05-22T01:05:04.641Z,0
2016-05-22T01:06:04.690Z,0
2016-05-22T01:07:04.662Z,0
2016-05-22T01:08:04.712Z,0
2016-05-22T01:09:04.683Z,0
2016-05-22T01:10:04.701Z,0
2016-05-22T01:11:04.720Z,0
2016-05-22T01:12:04.738Z,0
2016-05-22T01:13:05.256Z,0
2016-05-22T01:14:04.587Z,0
2016-05-22T01:15:04.606Z,0
2016-05-22T01:16:04.748Z,0
2016-05-22T01:17:04.627Z,0
2016-05-22T01:18:04.786Z,0
2016-05-22T01:19:04.803Z,0
2016-05-22T01:20:04.791Z,0
2016-05-22T01:21:04.809Z,0
2016-05-22T01:22:04.812Z,0
2016-05-22T01:23:04.862Z,0
2016-05-22T01:24:04.848Z,0
2016-05-22T01:25:04.851Z,0
2016-05-22T01:26:04.728Z,0
2016-05-22T01:27:04.888Z,0
2016-05-22T01:28:05.438Z,0
2016-05-22T01:29:04.908Z,0
2016-05-22T01:30:04.911Z,0
2016-05-22T01:31:04.913Z,0
2016-05-22T01:32:04.760Z,0
2016-05-22T01:33:04.966Z,0
2016-05-22T01:34:04.938Z,0
2016-05-22T01:35:04.987Z,0
2016-05-22T01:36:04.787Z,0
2016-05-22T01:37:04.821Z,0
2016-05-22T01:38:05.277Z,0
2016-05-22T01:39:04.842Z,0
2016-05-22T01:40:05.001Z,0
2016-05-22T01:41:05.018Z,0
2016-05-22T01:42:04.835Z,0
2016-05-22T01:43:06.103Z,0
2016-05-22T01:44:05.027Z,0
2016-05-22T01:45:05.029Z,0
2016-05-22T01:46:05.048Z,0
2016-05-22T01:47:05.067Z,0
2016-05-22T01:48:04.773Z,0
2016-05-22T01:49:05.072Z,0
2016-05-22T01:50:05.106Z,0
2016-05-22T01:51:04.968Z,0
2016-05-22T01:52:05.111Z,0
2016-05-22T01:53:05.380Z,0
2016-05-22T01:54:04.803Z,0
2016-05-22T01:55:05.136Z,0
2016-05-22T01:56:05.388Z,0
2016-05-22T01:57:05.172Z,0
2016-05-22T01:58:05.268Z,0
2016-05-22T01:59:05.021Z,0
2016-05-22T02:00:05.289Z,0
2016-05-22T02:01:05.183Z,0
2016-05-22T02:02:05.169Z,0
2016-05-22T02:03:05.063Z,0
2016-05-22T02:04:05.205Z,0
2016-05-22T02:05:05.241Z,0
2016-05-22T02:06:05.258Z,0
2016-05-22T02:07:05.276Z,0
2016-05-22T02:08:05.249Z,0
2016-05-22T02:09:05.282Z,0
2016-05-22T02:10:05.176Z,0
2016-05-22T02:11:05.021Z,0
2016-05-22T02:12:05.290Z,0
2016-05-22T02:13:05.715Z,0
2016-05-22T02:14:05.312Z,0
2016-05-22T02:15:05.189Z,0
2016-05-22T02:16:05.473Z,0
2016-05-22T02:17:05.351Z,0
2016-05-22T02:18:05.353Z,0
2016-05-22T02:19:05.371Z,0
2016-05-22T02:20:05.359Z,0
2016-05-22T02:21:05.424Z,0
2016-05-22T02:22:05.458Z,0
2016-05-22T02:23:05.273Z,0
2016-05-22T02:24:05.400Z,0
2016-05-22T02:25:05.466Z,0
2016-05-22T02:26:05.281Z,0
2016-05-22T02:27:05.128Z,0
2016-05-22T02:28:05.739Z,0
2016-05-22T02:29:05.367Z,0
2016-05-22T02:30:05.730Z,0
2016-05-22T02:31:05.482Z,0
2016-05-22T02:32:05.610Z,0
2016-05-22T02:33:05.503Z,0
2016-05-22T02:34:05.491Z,0
2016-05-22T02:35:05.571Z,0
2016-05-22T02:36:05.542Z,0
2016-05-22T02:37:05.279Z,0
2016-05-22T02:38:05.844Z,0
2016-05-22T02:39:05.566Z,0
2016-05-22T02:40:05.585Z,0
2016-05-22T02:41:05.555Z,0
2016-05-22T02:42:05.683Z,0
2016-05-22T02:43:06.171Z,0
2016-05-22T02:44:05.423Z,0
2016-05-22T02:45:05.612Z,0
2016-05-22T02:46:05.476Z,0
2016-05-22T02:47:05.493Z,0
2016-05-22T02:48:05.621Z,0
2016-05-22T02:49:05.656Z,0
2016-05-22T02:50:05.658Z,0
2016-05-22T02:51:05.676Z,0
2016-05-22T02:52:05.554Z,0
2016-05-22T02:53:05.697Z,0
2016-05-22T02:54:05.700Z,0
2016-05-22T02:55:05.953Z,0
2016-05-22T02:56:05.595Z,0
2016-05-22T02:57:05.739Z,0
2016-05-22T02:58:05.976Z,0
2016-05-22T02:59:06.072Z,0
2016-05-22T03:00:05.763Z,0
2016-05-22T03:01:05.859Z,0
2016-05-22T03:02:05.612Z,0
2016-05-22T03:03:05.927Z,0
2016-05-22T03:04:05.648Z,0
2016-05-22T03:05:06.105Z,0
2016-05-22T03:06:05.529Z,0
2016-05-22T03:07:06.125Z,0
2016-05-22T03:08:05.582Z,0
2016-05-22T03:09:05.678Z,0
2016-05-22T03:10:05.868Z,0
2016-05-22T03:11:05.682Z,0
2016-05-22T03:12:05.873Z,0
2016-05-22T03:13:05.595Z,0
2016-05-22T03:14:05.894Z,0
2016-05-22T03:15:06.037Z,0
2016-05-22T03:16:05.821Z,0
2016-05-22T03:17:05.902Z,0
2016-05-22T03:18:05.873Z,0
2016-05-22T03:19:05.940Z,0
2016-05-22T03:20:05.660Z,0
2016-05-22T03:21:05.820Z,0
2016-05-22T03:22:05.962Z,0
2016-05-22T03:23:06.168Z,0
2016-05-22T03:24:05.984Z,0
2016-05-22T03:25:05.845Z,0
2016-05-22T03:26:06.005Z,0
2016-05-22T03:27:05.726Z,0
2016-05-22T03:28:06.306Z,0
2016-05-22T03:29:05.731Z,0
2016-05-22T03:30:06.032Z,0
2016-05-22T03:31:06.129Z,0
2016-05-22T03:32:05.976Z,0
2016-05-22T03:33:06.182Z,0
2016-05-22T03:34:06.091Z,0
2016-05-22T03:35:06.239Z,0
2016-05-22T03:36:06.144Z,0
2016-05-22T03:37:06.251Z,0
2016-05-22T03:38:06.219Z,0
2016-05-22T03:39:06.326Z,0
2016-05-22T03:40:06.352Z,0
2016-05-22T03:41:06.405Z,0
2016-05-22T03:42:06.365Z,0
2016-05-22T03:43:06.403Z,0
2016-05-22T03:44:06.395Z,0
2016-05-22T03:45:06.416Z,0
2016-05-22T03:46:06.108Z,0
2016-05-22T03:47:06.440Z,0
2016-05-22T03:48:06.444Z,0
2016-05-22T03:49:06.496Z,0
2016-05-22T03:50:06.467Z,0
2016-05-22T03:51:06.330Z,0
2016-05-22T03:52:06.474Z,0
2016-05-22T03:53:06.492Z,0
2016-05-22T03:54:06.511Z,0
2016-05-22T03:55:06.373Z,5
2016-05-22T03:56:06.533Z,5
2016-05-22T03:57:06.535Z,5
2016-05-22T03:58:07.069Z,5
2016-05-22T03:59:06.587Z,5
2016-05-22T04:00:06.558Z,5
2016-05-22T04:01:06.280Z,5
2016-05-22T04:02:06.424Z,5
2016-05-22T04:03:06.598Z,5
2016-05-22T04:04:06.429Z,5
2016-05-22T04:05:06.634Z,5
2016-05-22T04:06:06.606Z,5
2016-05-22T04:07:06.485Z,5
2016-05-22T04:08:06.471Z,5
2016-05-22T04:09:06.629Z,5
2016-05-22T04:10:06.507Z,5
2016-05-22T04:11:06.682Z,5
2016-05-22T04:12:06.544Z,5
2016-05-22T04:13:06.782Z,10
2016-05-22T04:14:06.690Z,10
2016-05-22T04:15:06.676Z,10
2016-05-22T04:16:06.726Z,15
2016-05-22T04:17:06.698Z,15
2016-05-22T04:18:06.748Z,15
2016-05-22T04:19:06.423Z,15
2016-05-22T04:20:06.598Z,15
2016-05-22T04:21:06.599Z,15
2016-05-22T04:22:06.775Z,15
2016-05-22T04:23:06.620Z,15
2016-05-22T04:24:06.811Z,15
2016-05-22T04:25:06.798Z,10
2016-05-22T04:26:06.801Z,15
2016-05-22T04:27:06.834Z,15
2016-05-22T04:28:07.009Z,15
2016-05-22T04:29:06.684Z,15
2016-05-22T04:30:06.842Z,15
2016-05-22T04:31:06.564Z,15
2016-05-22T04:32:06.879Z,15
2016-05-22T04:33:06.866Z,15
2016-05-22T04:34:06.900Z,15
2016-05-22T04:35:06.746Z,15
2016-05-22T04:36:06.921Z,15
2016-05-22T04:37:06.908Z,15
2016-05-22T04:38:06.911Z,15
2016-05-22T04:39:06.773Z,15
2016-05-22T04:40:06.979Z,15
2016-05-22T04:41:06.809Z,20
2016-05-22T04:42:06.984Z,15
2016-05-22T04:43:07.018Z,15
2016-05-22T04:44:06.818Z,15
2016-05-22T04:45:06.992Z,15
2016-05-22T04:46:07.026Z,15
2016-05-22T04:47:06.857Z,15
2016-05-22T04:48:07.015Z,15
2016-05-22T04:49:06.909Z,15
2016-05-22T04:50:07.037Z,15
2016-05-22T04:51:06.899Z,15
2016-05-22T04:52:07.089Z,15
2016-05-22T04:53:07.061Z,15
2016-05-22T04:54:07.063Z,15
2016-05-22T04:55:07.081Z,15
2016-05-22T04:56:06.959Z,15
2016-05-22T04:57:06.946Z,15
2016-05-22T04:58:06.808Z,15
2016-05-22T04:59:07.124Z,15
2016-05-22T05:00:07.127Z,15
2016-05-22T05:01:07.019Z,15
2016-05-22T05:02:07.022Z,15
2016-05-22T05:03:07.165Z,15
2016-05-22T05:04:06.996Z,15
2016-05-22T05:05:07.171Z,15
2016-05-22T05:06:07.174Z,15
2016-05-22T05:07:07.207Z,15
2016-05-22T05:08:07.038Z,15
2016-05-22T05:09:07.072Z,15
2016-05-22T05:10:07.231Z,15
2016-05-22T05:11:06.938Z,15
2016-05-22T05:12:06.924Z,15
2016-05-22T05:13:07.645Z,15
2016-05-22T05:14:07.304Z,15
2016-05-22T05:15:07.276Z,15
2016-05-22T05:16:07.122Z,15
2016-05-22T05:17:07.313Z,15
2016-05-22T05:18:07.300Z,15
2016-05-22T05:19:07.333Z,15
2016-05-22T05:20:07.008Z,15
2016-05-22T05:21:07.339Z,15
2016-05-22T05:22:07.186Z,15
2016-05-22T05:23:07.392Z,15
2016-05-22T05:24:07.395Z,15
2016-05-22T05:25:07.380Z,15
2016-05-22T05:26:07.227Z,15
2016-05-22T05:27:07.403Z,15
2016-05-22T05:28:07.733Z,15
2016-05-22T05:29:07.267Z,15
2016-05-22T05:30:07.426Z,15
2016-05-22T05:31:07.272Z,15
2016-05-22T05:32:07.430Z,15
2016-05-22T05:33:07.450Z,15
2016-05-22T05:34:07.452Z,15
2016-05-22T05:35:07.486Z,15
2016-05-22T05:36:07.317Z,15
2016-05-22T05:37:07.477Z,15
2016-05-22T05:38:07.479Z,15
2016-05-22T05:39:07.544Z,15
2016-05-22T05:40:07.515Z,15
2016-05-22T05:41:07.377Z,15
2016-05-22T05:42:07.552Z,15
2016-05-22T05:43:08.539Z,15
2016-05-22T05:44:07.573Z,15
2016-05-22T05:45:07.434Z,15
2016-05-22T05:46:07.578Z,15
2016-05-22T05:47:07.581Z,15
2016-05-22T05:48:07.583Z,15
2016-05-22T05:49:07.305Z,15
2016-05-22T05:50:07.464Z,15
2016-05-22T05:51:07.514Z,15
2016-05-22T05:52:07.625Z,15
2016-05-22T05:53:07.645Z,15
2016-05-22T05:54:07.693Z,10
2016-05-22T05:55:07.509Z,10
2016-05-22T05:56:07.683Z,10
2016-05-22T05:57:07.733Z,10
2016-05-22T05:58:07.392Z,10
2016-05-22T05:59:07.394Z,10
2016-05-22T06:00:07.553Z,10
2016-05-22T06:01:07.712Z,10
2016-05-22T06:02:07.589Z,10
2016-05-22T06:03:07.764Z,10
2016-05-22T06:04:07.766Z,10
2016-05-22T06:05:07.755Z,15
2016-05-22T06:06:07.772Z,15
2016-05-22T06:07:07.791Z,15
2016-05-22T06:08:07.778Z,15
2016-05-22T06:09:07.687Z,15
2016-05-22T06:10:07.643Z,15
2016-05-22T06:11:07.677Z,15
2016-05-22T06:12:07.663Z,15
2016-05-22T06:13:08.010Z,15
2016-05-22T06:14:07.841Z,15
2016-05-22T06:15:07.860Z,15
2016-05-22T06:16:07.877Z,15
2016-05-22T06:17:07.740Z,15
2016-05-22T06:18:07.899Z,15
2016-05-22T06:19:07.902Z,15
2016-05-22T06:20:07.763Z,15
2016-05-22T06:21:07.906Z,15
2016-05-22T06:22:07.940Z,15
2016-05-22T06:23:07.928Z,15
2016-05-22T06:24:07.821Z,15
2016-05-22T06:25:07.949Z,15
2016-05-22T06:26:07.842Z,15
2016-05-22T06:27:07.969Z,15
2016-05-22T06:28:07.864Z,15
2016-05-22T06:29:07.975Z,15
2016-05-22T06:30:07.853Z,15
2016-05-22T06:31:07.997Z,15
2016-05-22T06:32:07.890Z,15
2016-05-22T06:33:07.907Z,15
2016-05-22T06:34:08.035Z,15
2016-05-22T06:35:08.069Z,15
2016-05-22T06:36:07.931Z,15
2016-05-22T06:37:08.059Z,15
2016-05-22T06:38:08.077Z,15
2016-05-22T06:39:08.079Z,15
2016-05-22T06:40:08.129Z,15
2016-05-22T06:41:07.944Z,15
2016-05-22T06:42:07.979Z,15
2016-05-22T06:43:08.154Z,15
2016-05-22T06:44:08.000Z,15
2016-05-22T06:45:08.159Z,15
2016-05-22T06:46:08.145Z,15
2016-05-22T06:47:08.165Z,15
2016-05-22T06:48:08.198Z,15
2016-05-22T06:49:08.045Z,15
2016-05-22T06:50:08.048Z,15
2016-05-22T06:51:07.909Z,15
2016-05-22T06:52:08.192Z,15
2016-05-22T06:53:08.086Z,15
2016-05-22T06:54:08.245Z,15
2016-05-22T06:55:08.248Z,15
2016-05-22T06:56:07.939Z,15
2016-05-22T06:57:08.284Z,15
2016-05-22T06:58:09.225Z,15
2016-05-22T06:59:08.275Z,15
2016-05-22T07:00:08.308Z,15
2016-05-22T07:01:08.171Z,15
2016-05-22T07:02:08.314Z,15
2016-05-22T07:03:08.160Z,15
2016-05-22T07:04:08.366Z,15
2016-05-22T07:05:08.338Z,15
2016-05-22T07:06:08.199Z,15
2016-05-22T07:07:08.218Z,15
2016-05-22T07:08:08.361Z,15
2016-05-22T07:09:08.395Z,15
2016-05-22T07:10:08.397Z,15
2016-05-22T07:11:08.400Z,15
2016-05-22T07:12:08.435Z,15
2016-05-22T07:13:08.702Z,15
2016-05-22T07:14:08.283Z,15
2016-05-22T07:15:08.443Z,15
2016-05-22T07:16:08.304Z,15
2016-05-22T07:17:08.432Z,15
2016-05-22T07:18:08.482Z,15
2016-05-22T07:19:08.313Z,15
2016-05-22T07:20:08.518Z,15
2016-05-22T07:21:08.349Z,15
2016-05-22T07:22:08.540Z,15
2016-05-22T07:23:08.371Z,15
2016-05-22T07:24:08.560Z,15
2016-05-22T07:25:08.548Z,15
2016-05-22T07:26:08.535Z,15
2016-05-22T07:27:08.412Z,15
2016-05-22T07:28:09.040Z,15
2016-05-22T07:29:08.558Z,15
2016-05-22T07:30:08.608Z,15
2016-05-22T07:31:08.439Z,15
2016-05-22T07:32:08.301Z,15
2016-05-22T07:33:08.288Z,15
2016-05-22T07:34:08.649Z,15
2016-05-22T07:35:08.621Z,20
2016-05-22T07:36:08.672Z,20
2016-05-22T07:37:08.658Z,20
2016-05-22T07:38:08.520Z,20
2016-05-22T07:39:08.522Z,20
2016-05-22T07:40:08.666Z,20
2016-05-22T07:41:08.699Z,20
2016-05-22T07:42:08.718Z,20
2016-05-22T07:43:09.018Z,20
2016-05-22T07:44:08.552Z,20
2016-05-22T07:45:08.757Z,20
2016-05-22T07:46:08.729Z,20
2016-05-22T07:47:08.762Z,20
2016-05-22T07:48:08.765Z,20
2016-05-22T07:49:08.800Z,20
2016-05-22T07:50:08.771Z,20
2016-05-22T07:51:08.789Z,20
2016-05-22T07:52:08.667Z,20
2016-05-22T07:53:08.513Z,20
2016-05-22T07:54:08.828Z,20
2016-05-22T07:55:08.691Z,20
2016-05-22T07:56:08.834Z,20
2016-05-22T07:57:08.852Z,20
2016-05-22T07:58:09.809Z,20
2016-05-22T07:59:08.733Z,20
2016-05-22T08:00:08.891Z,20
2016-05-22T08:01:08.926Z,20
2016-05-22T08:02:08.898Z,20
2016-05-22T08:03:08.759Z,20
2016-05-22T08:04:08.933Z,20
2016-05-22T08:05:08.828Z,20
2016-05-22T08:06:08.970Z,20
2016-05-22T08:07:08.972Z,20
2016-05-22T08:08:08.960Z,20
2016-05-22T08:09:08.978Z,25
2016-05-22T08:10:08.841Z,25
2016-05-22T08:11:08.844Z,25
2016-05-22T08:12:09.018Z,25
2016-05-22T08:13:08.896Z,25
2016-05-22T08:14:09.023Z,25
2016-05-22T08:15:09.041Z,25
2016-05-22T08:16:09.028Z,25
2016-05-22T08:17:08.890Z,25
2016-05-22T08:18:09.065Z,25
2016-05-22T08:19:09.083Z,25
2016-05-22T08:20:08.914Z,25
2016-05-22T08:21:09.104Z,25
2016-05-22T08:22:08.966Z,25
2016-05-22T08:23:09.126Z,25
2016-05-22T08:24:09.112Z,25
2016-05-22T08:25:09.131Z,25
2016-05-22T08:26:08.993Z,25
2016-05-22T08:27:09.151Z,25
2016-05-22T08:28:09.029Z,25
2016-05-22T08:29:09.017Z,25
2016-05-22T08:30:09.051Z,25
2016-05-22T08:31:09.178Z,25
2016-05-22T08:32:09.228Z,25
2016-05-22T08:33:09.214Z,25
2016-05-22T08:34:09.218Z,25
2016-05-22T08:35:09.142Z,25
2016-05-22T08:36:08.942Z,30
2016-05-22T08:37:09.241Z,30
2016-05-22T08:38:09.103Z,30
2016-05-22T08:39:09.261Z,30
2016-05-22T08:40:09.140Z,30
2016-05-22T08:41:09.127Z,30
2016-05-22T08:42:09.161Z,30
2016-05-22T08:43:09.194Z,30
2016-05-22T08:44:09.338Z,30
2016-05-22T08:45:09.013Z,30
2016-05-22T08:46:09.360Z,30
2016-05-22T08:47:09.190Z,30
2016-05-22T08:48:09.224Z,30
2016-05-22T08:49:09.382Z,30
2016-05-22T08:50:09.401Z,30
2016-05-22T08:51:09.404Z,30
2016-05-22T08:52:09.265Z,30
2016-05-22T08:53:09.409Z,30
2016-05-22T08:54:09.412Z,30
2016-05-22T08:55:09.446Z,30
2016-05-22T08:56:09.432Z,30
2016-05-22T08:57:09.295Z,30
2016-05-22T08:58:09.829Z,30
2016-05-22T08:59:09.331Z,30
2016-05-22T09:00:09.334Z,30
2016-05-22T09:01:09.492Z,30
2016-05-22T09:02:09.527Z,30
2016-05-22T09:03:09.498Z,30
2016-05-22T09:04:09.548Z,30
2016-05-22T09:05:09.550Z,30
2016-05-22T09:06:09.538Z,30
2016-05-22T09:07:09.556Z,30
2016-05-22T09:08:09.575Z,30
2016-05-22T09:09:09.608Z,30
2016-05-22T09:10:09.611Z,35
2016-05-22T09:11:09.614Z,35
2016-05-22T09:12:09.632Z,35
2016-05-22T09:13:09.588Z,35
2016-05-22T09:14:09.325Z,35
2016-05-22T09:15:09.672Z,35
2016-05-22T09:16:09.658Z,35
2016-05-22T09:17:09.660Z,35
2016-05-22T09:18:09.695Z,35
2016-05-22T09:19:09.651Z,35
2016-05-22T09:20:09.544Z,35
2016-05-22T09:21:09.671Z,35
2016-05-22T09:22:09.706Z,35
2016-05-22T09:23:09.552Z,35
2016-05-22T09:24:09.758Z,35
2016-05-22T09:25:09.417Z,35
2016-05-22T09:26:09.763Z,35
2016-05-22T09:27:09.626Z,35
2016-05-22T09:28:10.034Z,35
2016-05-22T09:29:09.787Z,35
2016-05-22T09:30:09.790Z,35
2016-05-22T09:31:09.793Z,35
2016-05-22T09:32:09.671Z,35
2016-05-22T09:33:09.814Z,35
2016-05-22T09:34:09.659Z,35
2016-05-22T09:35:09.819Z,35
2016-05-22T09:36:09.853Z,35
2016-05-22T09:37:09.542Z,35
2016-05-22T09:38:09.889Z,35
2016-05-22T09:39:09.877Z,35
2016-05-22T09:40:09.895Z,35
2016-05-22T09:41:09.882Z,40
2016-05-22T09:42:09.916Z,40
2016-05-22T09:43:09.809Z,40
2016-05-22T09:44:09.952Z,40
2016-05-22T09:45:09.939Z,40
2016-05-22T09:46:09.942Z,40
2016-05-22T09:47:09.789Z,40
2016-05-22T09:48:09.963Z,40
2016-05-22T09:49:09.825Z,40
2016-05-22T09:50:10.000Z,40
2016-05-22T09:51:09.877Z,40
2016-05-22T09:52:10.005Z,40
2016-05-22T09:53:09.915Z,40
2016-05-22T09:54:10.011Z,40
2016-05-22T09:55:10.060Z,40
2016-05-22T09:56:10.032Z,40
2016-05-22T09:57:10.065Z,40
2016-05-22T09:58:10.928Z,40
2016-05-22T09:59:09.931Z,40
2016-05-22T10:00:10.104Z,40
2016-05-22T10:01:09.951Z,40
2016-05-22T10:02:10.126Z,40
2016-05-22T10:03:09.972Z,40
2016-05-22T10:04:10.131Z,40
2016-05-22T10:05:09.837Z,40
2016-05-22T10:06:10.168Z,40
2016-05-22T10:07:09.859Z,40
2016-05-22T10:08:10.158Z,40
2016-05-22T10:09:10.208Z,40
2016-05-22T10:10:10.178Z,40
2016-05-22T10:11:10.228Z,40
2016-05-22T10:12:10.044Z,40
2016-05-22T10:13:10.389Z,40
2016-05-22T10:14:10.236Z,45
2016-05-22T10:15:10.099Z,45
2016-05-22T10:16:10.257Z,45
2016-05-22T10:17:10.292Z,45
2016-05-22T10:18:10.340Z,45
2016-05-22T10:19:09.985Z,45
2016-05-22T10:20:10.174Z,45
2016-05-22T10:21:10.302Z,45
2016-05-22T10:22:10.164Z,45
2016-05-22T10:23:10.338Z,45
2016-05-22T10:24:10.341Z,45
2016-05-22T10:25:10.344Z,45
2016-05-22T10:26:10.346Z,45
2016-05-22T10:27:10.381Z,45
2016-05-22T10:28:10.384Z,45
2016-05-22T10:29:10.245Z,45
2016-05-22T10:30:10.404Z,45
2016-05-22T10:31:10.109Z,45
2016-05-22T10:32:10.238Z,45
2016-05-22T10:33:10.429Z,45
2016-05-22T10:34:10.275Z,45
2016-05-22T10:35:10.449Z,45
2016-05-22T10:36:10.327Z,45
2016-05-22T10:37:10.298Z,45
2016-05-22T10:38:10.489Z,45
2016-05-22T10:39:10.334Z,45
2016-05-22T10:40:10.494Z,45
2016-05-22T10:41:10.512Z,45
2016-05-22T10:42:10.531Z,45
2016-05-22T10:43:10.564Z,45
2016-05-22T10:44:10.411Z,45
2016-05-22T10:45:10.554Z,45
2016-05-22T10:46:10.558Z,45
2016-05-22T10:47:10.574Z,45
2016-05-22T10:48:10.593Z,45
2016-05-22T10:49:10.580Z,45
2016-05-22T10:50:10.599Z,45
2016-05-22T10:51:10.633Z,45
2016-05-22T10:52:10.619Z,45
2016-05-22T10:53:10.622Z,45
2016-05-22T10:54:10.672Z,45
2016-05-22T10:55:10.644Z,45
2016-05-22T10:56:10.538Z,45
2016-05-22T10:57:10.695Z,45
2016-05-22T10:58:10.573Z,45
2016-05-22T10:59:11.060Z,45
2016-05-22T11:00:10.751Z,45
2016-05-22T11:01:10.723Z,45
2016-05-22T11:02:10.756Z,50
2016-05-22T11:03:10.603Z,50
2016-05-22T11:04:10.606Z,50
2016-05-22T11:05:10.640Z,50
2016-05-22T11:06:10.767Z,50
2016-05-22T11:07:10.613Z,50
2016-05-22T11:08:10.631Z,50
2016-05-22T11:09:10.650Z,50
2016-05-22T11:10:10.652Z,50
2016-05-22T11:11:10.843Z,50
2016-05-22T11:12:10.830Z,50
2016-05-22T11:13:10.864Z,50
2016-05-22T11:14:10.866Z,50
2016-05-22T11:15:10.556Z,50
2016-05-22T11:16:10.903Z,50
2016-05-22T11:17:10.719Z,50
2016-05-22T11:18:10.752Z,50
2016-05-22T11:19:10.911Z,50
2016-05-22T11:20:10.788Z,50
2016-05-22T11:21:10.791Z,50
2016-05-22T11:22:10.950Z,50
2016-05-22T11:23:10.953Z,50
2016-05-22T11:24:10.956Z,50
2016-05-22T11:25:10.990Z,50
2016-05-22T11:26:10.836Z,50
2016-05-22T11:27:11.027Z,50
2016-05-22T11:28:10.888Z,50
2016-05-22T11:29:11.423Z,50
2016-05-22T11:30:11.018Z,50
2016-05-22T11:31:10.881Z,50
2016-05-22T11:32:11.040Z,50
2016-05-22T11:33:10.934Z,50
2016-05-22T11:34:11.077Z,50
2016-05-22T11:35:10.970Z,50
2016-05-22T11:36:10.942Z,50
2016-05-22T11:37:11.085Z,50
2016-05-22T11:38:11.103Z,50
2016-05-22T11:39:11.153Z,50
2016-05-22T11:40:11.123Z,50
2016-05-22T11:41:11.001Z,50
2016-05-22T11:42:11.176Z,50
2016-05-22T11:43:11.195Z,50
2016-05-22T11:44:11.197Z,50
2016-05-22T11:45:11.200Z,50
2016-05-22T11:46:11.187Z,50
2016-05-22T11:47:11.206Z,50
2016-05-22T11:48:11.224Z,50
2016-05-22T11:49:11.257Z,50
2016-05-22T11:50:11.089Z,50
2016-05-22T11:51:11.107Z,50
2016-05-22T11:52:11.281Z,50
2016-05-22T11:53:11.144Z,50
2016-05-22T11:54:11.161Z,50
2016-05-22T11:55:11.149Z,50
2016-05-22T11:56:11.324Z,50
2016-05-22T11:57:11.169Z,50
2016-05-22T11:58:11.360Z,50
2016-05-22T11:59:11.534Z,50
2016-05-22T12:00:11.224Z,50
2016-05-22T12:01:11.196Z,50
2016-05-22T12:02:11.402Z,50
2016-05-22T12:03:11.390Z,50
2016-05-22T12:04:11.407Z,50
2016-05-22T12:05:11.254Z,50
2016-05-22T12:06:11.428Z,50
2016-05-22T12:07:11.446Z,50
2016-05-22T12:08:11.262Z,50
2016-05-22T12:09:11.467Z,50
2016-05-22T12:10:11.470Z,45
2016-05-22T12:11:11.473Z,45
2016-05-22T12:12:11.351Z,50
2016-05-22T12:13:11.620Z,50
2016-05-22T12:14:11.464Z,50
2016-05-22T12:15:11.531Z,45
2016-05-22T12:16:11.549Z,45
2016-05-22T12:17:11.536Z,45
2016-05-22T12:18:11.570Z,45
2016-05-22T12:19:11.603Z,45
2016-05-22T12:20:11.560Z,45
2016-05-22T12:21:11.452Z,45
2016-05-22T12:22:11.658Z,45
2016-05-22T12:23:11.630Z,45
2016-05-22T12:24:11.305Z,45
2016-05-22T12:25:11.652Z,45
2016-05-22T12:26:11.655Z,45
2016-05-22T12:27:11.657Z,45
2016-05-22T12:28:11.799Z,45
2016-05-22T12:29:11.662Z,45
2016-05-22T12:30:11.665Z,45
2016-05-22T12:31:11.698Z,45
2016-05-22T12:32:11.545Z,45
2016-05-22T12:33:11.563Z,45
2016-05-22T12:34:11.722Z,45
2016-05-22T12:35:11.756Z,45
2016-05-22T12:36:11.741Z,45
2016-05-22T12:37:11.811Z,45
2016-05-22T12:38:11.850Z,45
2016-05-22T12:39:11.700Z,45
2016-05-22T12:40:11.785Z,45
2016-05-22T12:41:11.908Z,45
2016-05-22T12:42:11.918Z,45
2016-05-22T12:43:11.959Z,45
2016-05-22T12:44:11.828Z,45
2016-05-22T12:45:11.822Z,45
2016-05-22T12:46:12.000Z,45
2016-05-22T12:47:11.990Z,45
2016-05-22T12:48:11.730Z,45
2016-05-22T12:49:11.736Z,45
2016-05-22T12:50:12.083Z,45
2016-05-22T12:51:11.901Z,45
2016-05-22T12:52:12.091Z,45
2016-05-22T12:53:12.095Z,45
2016-05-22T12:54:12.083Z,45
2016-05-22T12:55:11.790Z,45
2016-05-22T12:56:11.965Z,45
2016-05-22T12:57:12.124Z,45
2016-05-22T12:58:12.596Z,45
2016-05-22T12:59:12.271Z,45
2016-05-22T13:00:12.025Z,45
2016-05-22T13:01:12.183Z,45
2016-05-22T13:02:12.202Z,45
2016-05-22T13:03:12.064Z,45
2016-05-22T13:04:12.084Z,45
2016-05-22T13:05:12.242Z,45
2016-05-22T13:06:12.105Z,45
2016-05-22T13:07:12.232Z,45
2016-05-22T13:08:12.126Z,45
2016-05-22T13:09:12.254Z,45
2016-05-22T13:10:12.131Z,40
2016-05-22T13:11:13.055Z,40
2016-05-22T13:12:12.167Z,40
2016-05-22T13:13:12.186Z,40
2016-05-22T13:14:12.329Z,40
2016-05-22T13:15:12.176Z,40
2016-05-22T13:16:12.334Z,40
2016-05-22T13:17:12.212Z,40
2016-05-22T13:18:12.200Z,40
2016-05-22T13:19:12.264Z,40
2016-05-22T13:20:12.080Z,40
2016-05-22T13:21:12.395Z,40
2016-05-22T13:22:12.413Z,40
2016-05-22T13:23:12.463Z,40
2016-05-22T13:24:12.294Z,40
2016-05-22T13:25:12.437Z,40
2016-05-22T13:26:12.471Z,40
2016-05-22T13:27:12.316Z,40
2016-05-22T13:28:12.211Z,40
2016-05-22T13:29:12.432Z,40
2016-05-22T13:30:12.512Z,40
2016-05-22T13:31:12.500Z,40
2016-05-22T13:32:15.221Z,40
2016-05-22T13:33:12.427Z,40
2016-05-22T13:34:12.383Z,40
2016-05-22T13:35:12.573Z,40
2016-05-22T13:36:12.420Z,40
2016-05-22T13:37:12.593Z,40
2016-05-22T13:38:12.582Z,40
2016-05-22T13:39:12.459Z,40
2016-05-22T13:40:12.321Z,40
2016-05-22T13:41:12.495Z,40
2016-05-22T13:42:12.623Z,40
2016-05-22T13:43:12.673Z,40
2016-05-22T13:44:12.347Z,40
2016-05-22T13:45:12.663Z,40
2016-05-22T13:46:12.525Z,35
2016-05-22T13:47:12.559Z,35
2016-05-22T13:48:12.577Z,35
2016-05-22T13:49:12.720Z,35
2016-05-22T13:50:12.754Z,35
2016-05-22T13:51:12.772Z,35
2016-05-22T13:52:12.744Z,35
2016-05-22T13:53:12.497Z,35
2016-05-22T13:54:12.780Z,35
2016-05-22T13:55:12.814Z,35
2016-05-22T13:56:12.786Z,35
2016-05-22T13:57:12.819Z,35
2016-05-22T13:58:12.745Z,35
2016-05-22T13:59:12.841Z,35
2016-05-22T14:00:12.671Z,35
2016-05-22T14:01:12.862Z,35
2016-05-22T14:02:12.724Z,35
2016-05-22T14:03:12.882Z,35
2016-05-22T14:04:12.885Z,35
2016-05-22T14:05:12.748Z,35
2016-05-22T14:06:12.907Z,35
2016-05-22T14:07:12.956Z,35
2016-05-22T14:08:12.912Z,35
2016-05-22T14:09:12.946Z,35
2016-05-22T14:10:12.948Z,35
2016-05-22T14:11:12.982Z,35
2016-05-22T14:12:12.970Z,35
2016-05-22T14:13:13.316Z,35
2016-05-22T14:14:13.287Z,35
2016-05-22T14:15:12.695Z,35
2016-05-22T14:16:12.902Z,35
2016-05-22T14:17:12.905Z,35
2016-05-22T14:18:12.892Z,35
2016-05-22T14:19:12.878Z,35
2016-05-22T14:20:13.054Z,35
2016-05-22T14:21:12.947Z,35
2016-05-22T14:22:13.074Z,35
2016-05-22T14:23:12.968Z,35
2016-05-22T14:24:13.111Z,35